sensor_id;sensor_type;location;lat;lon;timestamp;P1;durP1;ratioP1;P2;durP2;ratioP2
75634;SDS011;64227;48.724;9.104;2023-05-27T00:01:45;5.22;;;2.10;;
75634;SDS011;64227;48.724;9.104;2023-05-27T00:04:10;4.65;;;1.73;;
75634;SDS011;64227;48.724;9.104;2023-05-27T00:06:36;4.43;;;2.05;;
75634;SDS011;64227;48.724;9.104;2023-05-27T00:09:01;5.53;;;2.13;;
75634;SDS011;64227;48.724;9.104;2023-05-27T00:11:26;5.25;;;2.33;;
75634;SDS011;64227;48.724;9.104;2023-05-27T00:13:52;5.55;;;2.88;;
75634;SDS011;64227;48.724;9.104;2023-05-27T00:16:17;3.63;;;2.10;;
75634;SDS011;64227;48.724;9.104;2023-05-27T00:18:44;4.43;;;2.58;;
75634;SDS011;64227;48.724;9.104;2023-05-27T00:21:10;2.80;;;1.95;;
75634;SDS011;64227;48.724;9.104;2023-05-27T00:23:35;6.30;;;2.25;;
75634;SDS011;64227;48.724;9.104;2023-05-27T00:26:01;4.20;;;1.90;;
75634;SDS011;64227;48.724;9.104;2023-05-27T00:28:26;4.25;;;1.90;;
75634;SDS011;64227;48.724;9.104;2023-05-27T00:30:54;5.22;;;2.25;;
75634;SDS011;64227;48.724;9.104;2023-05-27T00:33:19;5.88;;;2.13;;
75634;SDS011;64227;48.724;9.104;2023-05-27T00:35:46;7.72;;;1.95;;
75634;SDS011;64227;48.724;9.104;2023-05-27T00:38:11;4.43;;;2.00;;
75634;SDS011;64227;48.724;9.104;2023-05-27T00:40:36;4.47;;;2.10;;
75634;SDS011;64227;48.724;9.104;2023-05-27T00:43:04;4.97;;;2.20;;
75634;SDS011;64227;48.724;9.104;2023-05-27T00:45:30;5.63;;;2.45;;
75634;SDS011;64227;48.724;9.104;2023-05-27T00:47:55;4.38;;;1.98;;
75634;SDS011;64227;48.724;9.104;2023-05-27T00:50:21;5.63;;;1.98;;
75634;SDS011;64227;48.724;9.104;2023-05-27T00:52:46;3.90;;;2.13;;
75634;SDS011;64227;48.724;9.104;2023-05-27T00:55:12;3.75;;;2.17;;
75634;SDS011;64227;48.724;9.104;2023-05-27T00:57:38;8.10;;;2.67;;
75634;SDS011;64227;48.724;9.104;2023-05-27T01:00:03;8.52;;;2.42;;
75634;SDS011;64227;48.724;9.104;2023-05-27T01:02:32;6.28;;;1.95;;
75634;SDS011;64227;48.724;9.104;2023-05-27T01:04:57;10.38;;;2.75;;
75634;SDS011;64227;48.724;9.104;2023-05-27T01:07:29;5.60;;;1.95;;
75634;SDS011;64227;48.724;9.104;2023-05-27T01:10:51;4.70;;;2.30;;
75634;SDS011;64227;48.724;9.104;2023-05-27T01:13:16;4.43;;;2.20;;
75634;SDS011;64227;48.724;9.104;2023-05-27T01:15:44;4.50;;;2.28;;
75634;SDS011;64227;48.724;9.104;2023-05-27T01:18:11;3.78;;;2.03;;
75634;SDS011;64227;48.724;9.104;2023-05-27T01:20:37;6.65;;;2.30;;
75634;SDS011;64227;48.724;9.104;2023-05-27T01:23:05;6.30;;;2.47;;
75634;SDS011;64227;48.724;9.104;2023-05-27T01:25:32;7.05;;;2.30;;
75634;SDS011;64227;48.724;9.104;2023-05-27T01:27:58;6.13;;;2.35;;
75634;SDS011;64227;48.724;9.104;2023-05-27T01:30:23;7.47;;;2.20;;
75634;SDS011;64227;48.724;9.104;2023-05-27T01:32:51;5.75;;;2.70;;
75634;SDS011;64227;48.724;9.104;2023-05-27T01:35:38;5.47;;;2.17;;
75634;SDS011;64227;48.724;9.104;2023-05-27T01:38:07;4.60;;;2.08;;
75634;SDS011;64227;48.724;9.104;2023-05-27T01:40:35;4.22;;;2.03;;
75634;SDS011;64227;48.724;9.104;2023-05-27T01:43:00;4.80;;;1.90;;
75634;SDS011;64227;48.724;9.104;2023-05-27T01:45:26;4.85;;;1.92;;
75634;SDS011;64227;48.724;9.104;2023-05-27T01:47:51;8.30;;;2.35;;
75634;SDS011;64227;48.724;9.104;2023-05-27T01:50:17;3.65;;;1.70;;
75634;SDS011;64227;48.724;9.104;2023-05-27T01:52:42;5.30;;;1.70;;
75634;SDS011;64227;48.724;9.104;2023-05-27T01:55:08;3.97;;;2.20;;
75634;SDS011;64227;48.724;9.104;2023-05-27T01:57:33;5.10;;;2.25;;
75634;SDS011;64227;48.724;9.104;2023-05-27T01:59:59;6.70;;;2.10;;
75634;SDS011;64227;48.724;9.104;2023-05-27T02:02:24;3.58;;;1.80;;
75634;SDS011;64227;48.724;9.104;2023-05-27T02:04:49;4.05;;;2.33;;
75634;SDS011;64227;48.724;9.104;2023-05-27T02:07:15;4.15;;;1.85;;
75634;SDS011;64227;48.724;9.104;2023-05-27T02:09:41;4.05;;;1.90;;
75634;SDS011;64227;48.724;9.104;2023-05-27T02:12:07;3.83;;;2.20;;
75634;SDS011;64227;48.724;9.104;2023-05-27T02:14:32;6.90;;;1.92;;
75634;SDS011;64227;48.724;9.104;2023-05-27T02:16:59;6.30;;;1.80;;
75634;SDS011;64227;48.724;9.104;2023-05-27T02:19:25;4.22;;;1.92;;
75634;SDS011;64227;48.724;9.104;2023-05-27T02:21:50;2.85;;;1.60;;
75634;SDS011;64227;48.724;9.104;2023-05-27T02:24:16;3.75;;;1.80;;
75634;SDS011;64227;48.724;9.104;2023-05-27T02:26:41;2.42;;;1.60;;
75634;SDS011;64227;48.724;9.104;2023-05-27T02:29:06;4.15;;;1.50;;
75634;SDS011;64227;48.724;9.104;2023-05-27T02:31:32;2.05;;;1.27;;
75634;SDS011;64227;48.724;9.104;2023-05-27T02:33:57;4.60;;;1.90;;
75634;SDS011;64227;48.724;9.104;2023-05-27T02:36:22;3.33;;;1.70;;
75634;SDS011;64227;48.724;9.104;2023-05-27T02:38:49;3.20;;;1.70;;
75634;SDS011;64227;48.724;9.104;2023-05-27T02:41:14;3.78;;;1.90;;
75634;SDS011;64227;48.724;9.104;2023-05-27T02:43:39;3.67;;;2.00;;
75634;SDS011;64227;48.724;9.104;2023-05-27T02:46:05;6.40;;;2.17;;
75634;SDS011;64227;48.724;9.104;2023-05-27T02:48:30;7.10;;;1.92;;
75634;SDS011;64227;48.724;9.104;2023-05-27T02:50:55;5.72;;;2.17;;
75634;SDS011;64227;48.724;9.104;2023-05-27T02:53:20;7.95;;;2.53;;
75634;SDS011;64227;48.724;9.104;2023-05-27T02:55:46;4.97;;;1.88;;
75634;SDS011;64227;48.724;9.104;2023-05-27T02:58:11;7.22;;;2.20;;
75634;SDS011;64227;48.724;9.104;2023-05-27T03:00:36;4.60;;;2.20;;
75634;SDS011;64227;48.724;9.104;2023-05-27T03:03:02;6.40;;;2.33;;
75634;SDS011;64227;48.724;9.104;2023-05-27T03:05:30;4.78;;;2.00;;
75634;SDS011;64227;48.724;9.104;2023-05-27T03:07:55;4.47;;;1.92;;
75634;SDS011;64227;48.724;9.104;2023-05-27T03:10:20;4.45;;;2.30;;
75634;SDS011;64227;48.724;9.104;2023-05-27T03:12:46;6.43;;;1.90;;
75634;SDS011;64227;48.724;9.104;2023-05-27T03:15:11;6.75;;;2.05;;
75634;SDS011;64227;48.724;9.104;2023-05-27T03:17:37;6.18;;;1.85;;
75634;SDS011;64227;48.724;9.104;2023-05-27T03:20:03;3.55;;;2.00;;
75634;SDS011;64227;48.724;9.104;2023-05-27T03:22:29;5.78;;;2.22;;
75634;SDS011;64227;48.724;9.104;2023-05-27T03:24:54;3.22;;;1.60;;
75634;SDS011;64227;48.724;9.104;2023-05-27T03:27:19;10.85;;;2.40;;
75634;SDS011;64227;48.724;9.104;2023-05-27T03:29:45;6.03;;;2.05;;
75634;SDS011;64227;48.724;9.104;2023-05-27T03:32:11;5.55;;;2.17;;
75634;SDS011;64227;48.724;9.104;2023-05-27T03:34:36;3.55;;;1.98;;
75634;SDS011;64227;48.724;9.104;2023-05-27T03:37:02;5.55;;;1.90;;
75634;SDS011;64227;48.724;9.104;2023-05-27T03:39:27;8.10;;;2.50;;
75634;SDS011;64227;48.724;9.104;2023-05-27T03:41:52;4.72;;;1.85;;
75634;SDS011;64227;48.724;9.104;2023-05-27T03:44:18;5.53;;;3.03;;
75634;SDS011;64227;48.724;9.104;2023-05-27T03:46:43;7.85;;;2.50;;
75634;SDS011;64227;48.724;9.104;2023-05-27T03:49:08;3.95;;;2.08;;
75634;SDS011;64227;48.724;9.104;2023-05-27T03:51:34;6.72;;;1.92;;
75634;SDS011;64227;48.724;9.104;2023-05-27T03:54:00;5.38;;;2.22;;
75634;SDS011;64227;48.724;9.104;2023-05-27T03:56:25;4.78;;;1.90;;
75634;SDS011;64227;48.724;9.104;2023-05-27T03:58:51;8.45;;;2.30;;
75634;SDS011;64227;48.724;9.104;2023-05-27T04:01:17;4.45;;;1.83;;
75634;SDS011;64227;48.724;9.104;2023-05-27T04:03:42;4.63;;;2.08;;
75634;SDS011;64227;48.724;9.104;2023-05-27T04:06:08;2.97;;;1.63;;
75634;SDS011;64227;48.724;9.104;2023-05-27T04:08:34;4.53;;;2.13;;
75634;SDS011;64227;48.724;9.104;2023-05-27T04:11:00;5.38;;;1.67;;
75634;SDS011;64227;48.724;9.104;2023-05-27T04:13:26;4.63;;;1.98;;
75634;SDS011;64227;48.724;9.104;2023-05-27T04:15:51;6.07;;;1.98;;
75634;SDS011;64227;48.724;9.104;2023-05-27T04:18:17;5.05;;;2.70;;
75634;SDS011;64227;48.724;9.104;2023-05-27T04:20:43;3.70;;;2.38;;
75634;SDS011;64227;48.724;9.104;2023-05-27T04:23:09;5.47;;;2.17;;
75634;SDS011;64227;48.724;9.104;2023-05-27T04:25:35;4.53;;;1.70;;
75634;SDS011;64227;48.724;9.104;2023-05-27T04:28:02;6.15;;;2.00;;
75634;SDS011;64227;48.724;9.104;2023-05-27T04:30:29;5.47;;;1.50;;
75634;SDS011;64227;48.724;9.104;2023-05-27T04:35:23;4.20;;;2.83;;
75634;SDS011;64227;48.724;9.104;2023-05-27T04:37:48;5.10;;;2.30;;
75634;SDS011;64227;48.724;9.104;2023-05-27T04:40:13;6.68;;;2.50;;
75634;SDS011;64227;48.724;9.104;2023-05-27T04:42:39;4.85;;;1.95;;
75634;SDS011;64227;48.724;9.104;2023-05-27T04:45:04;3.95;;;1.80;;
75634;SDS011;64227;48.724;9.104;2023-05-27T04:47:31;5.57;;;2.05;;
75634;SDS011;64227;48.724;9.104;2023-05-27T04:49:57;6.93;;;2.25;;
75634;SDS011;64227;48.724;9.104;2023-05-27T04:52:22;3.15;;;1.73;;
75634;SDS011;64227;48.724;9.104;2023-05-27T04:54:48;4.80;;;1.73;;
75634;SDS011;64227;48.724;9.104;2023-05-27T04:57:14;3.78;;;1.77;;
75634;SDS011;64227;48.724;9.104;2023-05-27T04:59:43;7.57;;;1.90;;
75634;SDS011;64227;48.724;9.104;2023-05-27T05:02:24;7.30;;;2.45;;
75634;SDS011;64227;48.724;9.104;2023-05-27T05:04:52;5.43;;;2.38;;
75634;SDS011;64227;48.724;9.104;2023-05-27T05:07:17;5.45;;;2.20;;
75634;SDS011;64227;48.724;9.104;2023-05-27T05:09:44;5.80;;;2.22;;
75634;SDS011;64227;48.724;9.104;2023-05-27T05:12:09;8.18;;;2.10;;
75634;SDS011;64227;48.724;9.104;2023-05-27T05:14:35;4.78;;;2.15;;
75634;SDS011;64227;48.724;9.104;2023-05-27T05:17:00;9.25;;;2.63;;
75634;SDS011;64227;48.724;9.104;2023-05-27T05:19:25;4.97;;;2.28;;
75634;SDS011;64227;48.724;9.104;2023-05-27T05:21:51;7.13;;;2.20;;
75634;SDS011;64227;48.724;9.104;2023-05-27T05:24:16;7.65;;;2.92;;
75634;SDS011;64227;48.724;9.104;2023-05-27T05:26:41;8.35;;;2.30;;
75634;SDS011;64227;48.724;9.104;2023-05-27T05:29:09;8.50;;;2.72;;
75634;SDS011;64227;48.724;9.104;2023-05-27T05:31:34;7.22;;;2.53;;
75634;SDS011;64227;48.724;9.104;2023-05-27T05:33:59;8.10;;;2.53;;
75634;SDS011;64227;48.724;9.104;2023-05-27T05:36:25;7.22;;;2.67;;
75634;SDS011;64227;48.724;9.104;2023-05-27T05:38:50;8.43;;;2.22;;
75634;SDS011;64227;48.724;9.104;2023-05-27T05:41:16;7.80;;;2.67;;
75634;SDS011;64227;48.724;9.104;2023-05-27T05:43:41;8.93;;;3.35;;
75634;SDS011;64227;48.724;9.104;2023-05-27T05:46:07;5.18;;;2.40;;
75634;SDS011;64227;48.724;9.104;2023-05-27T05:48:32;7.43;;;2.50;;
75634;SDS011;64227;48.724;9.104;2023-05-27T05:50:57;8.77;;;2.75;;
75634;SDS011;64227;48.724;9.104;2023-05-27T05:53:23;7.03;;;2.08;;
75634;SDS011;64227;48.724;9.104;2023-05-27T05:55:48;6.65;;;2.15;;
75634;SDS011;64227;48.724;9.104;2023-05-27T05:58:13;8.23;;;2.33;;
75634;SDS011;64227;48.724;9.104;2023-05-27T06:00:39;10.38;;;2.90;;
75634;SDS011;64227;48.724;9.104;2023-05-27T06:03:04;10.18;;;2.90;;
75634;SDS011;64227;48.724;9.104;2023-05-27T06:05:29;8.85;;;3.10;;
75634;SDS011;64227;48.724;9.104;2023-05-27T06:07:55;6.50;;;2.22;;
75634;SDS011;64227;48.724;9.104;2023-05-27T06:10:20;7.22;;;2.50;;
75634;SDS011;64227;48.724;9.104;2023-05-27T06:12:45;7.57;;;2.60;;
75634;SDS011;64227;48.724;9.104;2023-05-27T06:15:11;7.43;;;2.30;;
75634;SDS011;64227;48.724;9.104;2023-05-27T06:17:37;9.38;;;2.40;;
75634;SDS011;64227;48.724;9.104;2023-05-27T06:20:02;8.57;;;3.10;;
75634;SDS011;64227;48.724;9.104;2023-05-27T06:22:28;6.40;;;2.40;;
75634;SDS011;64227;48.724;9.104;2023-05-27T06:24:53;5.65;;;2.42;;
75634;SDS011;64227;48.724;9.104;2023-05-27T06:27:18;8.43;;;2.45;;
75634;SDS011;64227;48.724;9.104;2023-05-27T06:29:45;7.22;;;2.20;;
75634;SDS011;64227;48.724;9.104;2023-05-27T06:32:11;6.55;;;1.75;;
75634;SDS011;64227;48.724;9.104;2023-05-27T06:34:36;7.38;;;2.58;;
75634;SDS011;64227;48.724;9.104;2023-05-27T06:37:01;9.60;;;2.42;;
75634;SDS011;64227;48.724;9.104;2023-05-27T06:39:26;7.72;;;3.17;;
75634;SDS011;64227;48.724;9.104;2023-05-27T06:41:52;4.78;;;1.98;;
75634;SDS011;64227;48.724;9.104;2023-05-27T06:44:17;9.02;;;2.65;;
75634;SDS011;64227;48.724;9.104;2023-05-27T06:46:42;9.73;;;3.22;;
75634;SDS011;64227;48.724;9.104;2023-05-27T06:49:08;8.07;;;2.53;;
75634;SDS011;64227;48.724;9.104;2023-05-27T06:51:33;6.63;;;2.30;;
75634;SDS011;64227;48.724;9.104;2023-05-27T06:53:59;8.65;;;2.35;;
75634;SDS011;64227;48.724;9.104;2023-05-27T06:56:24;6.57;;;2.85;;
75634;SDS011;64227;48.724;9.104;2023-05-27T06:58:49;9.57;;;2.55;;
75634;SDS011;64227;48.724;9.104;2023-05-27T07:01:17;7.75;;;2.60;;
75634;SDS011;64227;48.724;9.104;2023-05-27T07:03:43;6.00;;;2.38;;
75634;SDS011;64227;48.724;9.104;2023-05-27T07:06:08;12.35;;;3.17;;
75634;SDS011;64227;48.724;9.104;2023-05-27T07:08:33;9.90;;;3.45;;
75634;SDS011;64227;48.724;9.104;2023-05-27T07:10:59;10.65;;;2.75;;
75634;SDS011;64227;48.724;9.104;2023-05-27T07:13:24;8.20;;;2.75;;
75634;SDS011;64227;48.724;9.104;2023-05-27T07:15:49;6.35;;;2.90;;
75634;SDS011;64227;48.724;9.104;2023-05-27T07:18:15;6.00;;;2.40;;
75634;SDS011;64227;48.724;9.104;2023-05-27T07:20:41;6.93;;;2.30;;
75634;SDS011;64227;48.724;9.104;2023-05-27T07:23:06;6.32;;;2.72;;
75634;SDS011;64227;48.724;9.104;2023-05-27T07:25:31;9.65;;;2.97;;
75634;SDS011;64227;48.724;9.104;2023-05-27T07:27:57;6.80;;;2.72;;
75634;SDS011;64227;48.724;9.104;2023-05-27T07:30:22;6.43;;;2.72;;
75634;SDS011;64227;48.724;9.104;2023-05-27T07:32:47;8.10;;;2.97;;
75634;SDS011;64227;48.724;9.104;2023-05-27T07:35:13;9.50;;;3.03;;
75634;SDS011;64227;48.724;9.104;2023-05-27T07:37:38;5.53;;;2.92;;
75634;SDS011;64227;48.724;9.104;2023-05-27T07:40:03;6.68;;;2.78;;
75634;SDS011;64227;48.724;9.104;2023-05-27T07:42:29;9.50;;;3.20;;
75634;SDS011;64227;48.724;9.104;2023-05-27T07:44:55;8.40;;;2.97;;
75634;SDS011;64227;48.724;9.104;2023-05-27T07:47:20;9.02;;;2.83;;
75634;SDS011;64227;48.724;9.104;2023-05-27T07:49:45;9.32;;;2.60;;
75634;SDS011;64227;48.724;9.104;2023-05-27T07:52:11;7.57;;;3.10;;
75634;SDS011;64227;48.724;9.104;2023-05-27T07:54:36;9.77;;;2.97;;
75634;SDS011;64227;48.724;9.104;2023-05-27T07:57:01;12.25;;;3.63;;
75634;SDS011;64227;48.724;9.104;2023-05-27T07:59:27;8.18;;;3.05;;
75634;SDS011;64227;48.724;9.104;2023-05-27T08:01:52;9.43;;;3.15;;
75634;SDS011;64227;48.724;9.104;2023-05-27T08:04:17;9.95;;;3.03;;
75634;SDS011;64227;48.724;9.104;2023-05-27T08:06:43;8.35;;;2.35;;
75634;SDS011;64227;48.724;9.104;2023-05-27T08:09:08;7.45;;;3.63;;
75634;SDS011;64227;48.724;9.104;2023-05-27T08:11:33;9.93;;;3.22;;
75634;SDS011;64227;48.724;9.104;2023-05-27T08:13:59;7.93;;;2.83;;
75634;SDS011;64227;48.724;9.104;2023-05-27T08:16:24;6.57;;;3.47;;
75634;SDS011;64227;48.724;9.104;2023-05-27T08:18:49;5.80;;;2.50;;
75634;SDS011;64227;48.724;9.104;2023-05-27T08:21:15;9.05;;;2.42;;
75634;SDS011;64227;48.724;9.104;2023-05-27T08:23:41;10.73;;;2.70;;
75634;SDS011;64227;48.724;9.104;2023-05-27T08:26:06;5.90;;;2.45;;
75634;SDS011;64227;48.724;9.104;2023-05-27T08:28:32;8.70;;;3.10;;
75634;SDS011;64227;48.724;9.104;2023-05-27T08:31:01;9.55;;;2.92;;
75634;SDS011;64227;48.724;9.104;2023-05-27T08:33:27;6.20;;;2.63;;
75634;SDS011;64227;48.724;9.104;2023-05-27T08:35:53;7.28;;;2.92;;
75634;SDS011;64227;48.724;9.104;2023-05-27T08:38:18;10.43;;;3.08;;
75634;SDS011;64227;48.724;9.104;2023-05-27T08:40:43;6.75;;;2.75;;
75634;SDS011;64227;48.724;9.104;2023-05-27T08:43:09;8.48;;;3.40;;
75634;SDS011;64227;48.724;9.104;2023-05-27T08:45:34;7.07;;;3.10;;
75634;SDS011;64227;48.724;9.104;2023-05-27T08:48:00;13.57;;;3.58;;
75634;SDS011;64227;48.724;9.104;2023-05-27T08:50:26;6.30;;;2.92;;
75634;SDS011;64227;48.724;9.104;2023-05-27T08:52:54;9.43;;;3.47;;
75634;SDS011;64227;48.724;9.104;2023-05-27T08:55:20;6.25;;;3.05;;
75634;SDS011;64227;48.724;9.104;2023-05-27T08:57:49;9.68;;;3.00;;
75634;SDS011;64227;48.724;9.104;2023-05-27T09:00:16;6.72;;;3.10;;
75634;SDS011;64227;48.724;9.104;2023-05-27T09:02:42;7.55;;;2.88;;
75634;SDS011;64227;48.724;9.104;2023-05-27T09:05:08;6.88;;;2.90;;
75634;SDS011;64227;48.724;9.104;2023-05-27T09:07:35;9.40;;;3.22;;
75634;SDS011;64227;48.724;9.104;2023-05-27T09:10:00;7.18;;;2.97;;
75634;SDS011;64227;48.724;9.104;2023-05-27T09:12:26;7.70;;;3.28;;
75634;SDS011;64227;48.724;9.104;2023-05-27T09:14:51;6.95;;;3.42;;
75634;SDS011;64227;48.724;9.104;2023-05-27T09:17:17;6.57;;;3.10;;
75634;SDS011;64227;48.724;9.104;2023-05-27T09:19:44;6.40;;;2.65;;
75634;SDS011;64227;48.724;9.104;2023-05-27T09:22:18;6.95;;;2.97;;
75634;SDS011;64227;48.724;9.104;2023-05-27T09:24:47;6.30;;;2.85;;
75634;SDS011;64227;48.724;9.104;2023-05-27T09:27:13;7.30;;;3.03;;
75634;SDS011;64227;48.724;9.104;2023-05-27T09:29:38;7.63;;;3.00;;
75634;SDS011;64227;48.724;9.104;2023-05-27T09:32:06;7.88;;;3.20;;
75634;SDS011;64227;48.724;9.104;2023-05-27T09:34:39;6.53;;;2.90;;
75634;SDS011;64227;48.724;9.104;2023-05-27T09:37:05;6.45;;;3.50;;
75634;SDS011;64227;48.724;9.104;2023-05-27T09:39:30;6.82;;;3.45;;
75634;SDS011;64227;48.724;9.104;2023-05-27T09:41:59;6.85;;;3.13;;
75634;SDS011;64227;48.724;9.104;2023-05-27T09:44:29;7.75;;;3.63;;
75634;SDS011;64227;48.724;9.104;2023-05-27T09:46:57;7.47;;;2.97;;
75634;SDS011;64227;48.724;9.104;2023-05-27T09:49:23;7.40;;;3.50;;
75634;SDS011;64227;48.724;9.104;2023-05-27T09:51:50;7.32;;;3.30;;
75634;SDS011;64227;48.724;9.104;2023-05-27T09:54:17;5.72;;;3.00;;
75634;SDS011;64227;48.724;9.104;2023-05-27T09:56:43;5.93;;;3.45;;
75634;SDS011;64227;48.724;9.104;2023-05-27T09:59:10;8.40;;;3.47;;
75634;SDS011;64227;48.724;9.104;2023-05-27T10:01:36;8.02;;;3.70;;
75634;SDS011;64227;48.724;9.104;2023-05-27T10:04:01;8.05;;;3.15;;
75634;SDS011;64227;48.724;9.104;2023-05-27T10:06:27;8.55;;;3.13;;
75634;SDS011;64227;48.724;9.104;2023-05-27T10:08:54;6.90;;;3.53;;
75634;SDS011;64227;48.724;9.104;2023-05-27T10:11:20;6.80;;;3.33;;
75634;SDS011;64227;48.724;9.104;2023-05-27T10:13:46;7.63;;;3.60;;
75634;SDS011;64227;48.724;9.104;2023-05-27T10:16:18;5.22;;;3.35;;
75634;SDS011;64227;48.724;9.104;2023-05-27T10:18:45;8.55;;;3.40;;
75634;SDS011;64227;48.724;9.104;2023-05-27T10:21:18;8.20;;;3.50;;
75634;SDS011;64227;48.724;9.104;2023-05-27T10:23:52;5.45;;;3.50;;
75634;SDS011;64227;48.724;9.104;2023-05-27T10:26:37;9.65;;;3.42;;
75634;SDS011;64227;48.724;9.104;2023-05-27T10:29:08;8.27;;;3.85;;
75634;SDS011;64227;48.724;9.104;2023-05-27T10:31:47;7.55;;;3.83;;
75634;SDS011;64227;48.724;9.104;2023-05-27T10:37:19;7.85;;;3.22;;
75634;SDS011;64227;48.724;9.104;2023-05-27T10:39:55;7.40;;;3.45;;
75634;SDS011;64227;48.724;9.104;2023-05-27T10:42:21;5.30;;;2.78;;
75634;SDS011;64227;48.724;9.104;2023-05-27T10:44:49;9.02;;;4.15;;
75634;SDS011;64227;48.724;9.104;2023-05-27T10:47:14;7.45;;;3.67;;
75634;SDS011;64227;48.724;9.104;2023-05-27T10:49:40;7.38;;;3.90;;
75634;SDS011;64227;48.724;9.104;2023-05-27T10:52:12;8.23;;;3.60;;
75634;SDS011;64227;48.724;9.104;2023-05-27T10:54:38;6.65;;;3.33;;
75634;SDS011;64227;48.724;9.104;2023-05-27T10:57:05;5.93;;;3.40;;
75634;SDS011;64227;48.724;9.104;2023-05-27T10:59:38;6.95;;;3.50;;
75634;SDS011;64227;48.724;9.104;2023-05-27T11:02:17;6.15;;;3.05;;
75634;SDS011;64227;48.724;9.104;2023-05-27T11:04:43;4.32;;;3.47;;
75634;SDS011;64227;48.724;9.104;2023-05-27T11:07:08;5.95;;;3.38;;
75634;SDS011;64227;48.724;9.104;2023-05-27T11:09:44;5.20;;;3.60;;
75634;SDS011;64227;48.724;9.104;2023-05-27T11:12:13;8.57;;;3.80;;
75634;SDS011;64227;48.724;9.104;2023-05-27T11:14:41;5.70;;;3.00;;
75634;SDS011;64227;48.724;9.104;2023-05-27T11:17:22;4.60;;;3.15;;
75634;SDS011;64227;48.724;9.104;2023-05-27T11:19:47;6.40;;;3.55;;
75634;SDS011;64227;48.724;9.104;2023-05-27T11:22:14;5.50;;;3.10;;
75634;SDS011;64227;48.724;9.104;2023-05-27T11:24:41;7.10;;;3.63;;
75634;SDS011;64227;48.724;9.104;2023-05-27T11:27:10;7.03;;;3.50;;
75634;SDS011;64227;48.724;9.104;2023-05-27T11:29:39;5.88;;;3.10;;
75634;SDS011;64227;48.724;9.104;2023-05-27T11:32:05;4.32;;;3.17;;
75634;SDS011;64227;48.724;9.104;2023-05-27T11:34:35;8.57;;;3.70;;
75634;SDS011;64227;48.724;9.104;2023-05-27T11:37:01;6.38;;;3.45;;
75634;SDS011;64227;48.724;9.104;2023-05-27T11:39:30;6.47;;;3.65;;
75634;SDS011;64227;48.724;9.104;2023-05-27T11:41:56;6.15;;;3.72;;
75634;SDS011;64227;48.724;9.104;2023-05-27T11:44:22;4.65;;;3.00;;
75634;SDS011;64227;48.724;9.104;2023-05-27T11:46:49;7.15;;;3.60;;
75634;SDS011;64227;48.724;9.104;2023-05-27T11:49:16;5.97;;;3.70;;
75634;SDS011;64227;48.724;9.104;2023-05-27T11:51:43;5.60;;;3.60;;
75634;SDS011;64227;48.724;9.104;2023-05-27T11:54:20;4.78;;;3.30;;
75634;SDS011;64227;48.724;9.104;2023-05-27T11:56:47;5.72;;;3.92;;
75634;SDS011;64227;48.724;9.104;2023-05-27T11:59:13;9.20;;;3.85;;
75634;SDS011;64227;48.724;9.104;2023-05-27T12:01:39;5.55;;;3.30;;
75634;SDS011;64227;48.724;9.104;2023-05-27T12:04:05;6.78;;;3.90;;
75634;SDS011;64227;48.724;9.104;2023-05-27T12:06:31;5.97;;;3.60;;
75634;SDS011;64227;48.724;9.104;2023-05-27T12:08:56;6.18;;;3.10;;
75634;SDS011;64227;48.724;9.104;2023-05-27T12:11:21;7.72;;;3.13;;
75634;SDS011;64227;48.724;9.104;2023-05-27T12:13:47;7.07;;;3.50;;
75634;SDS011;64227;48.724;9.104;2023-05-27T12:16:12;5.13;;;3.03;;
75634;SDS011;64227;48.724;9.104;2023-05-27T12:18:37;6.68;;;3.70;;
75634;SDS011;64227;48.724;9.104;2023-05-27T12:21:03;4.93;;;3.03;;
75634;SDS011;64227;48.724;9.104;2023-05-27T12:23:29;5.47;;;3.72;;
75634;SDS011;64227;48.724;9.104;2023-05-27T12:25:54;6.18;;;3.83;;
75634;SDS011;64227;48.724;9.104;2023-05-27T12:28:20;6.28;;;3.53;;
75634;SDS011;64227;48.724;9.104;2023-05-27T12:30:46;5.30;;;3.28;;
75634;SDS011;64227;48.724;9.104;2023-05-27T12:33:12;7.13;;;3.70;;
75634;SDS011;64227;48.724;9.104;2023-05-27T12:35:38;7.47;;;3.97;;
75634;SDS011;64227;48.724;9.104;2023-05-27T12:38:03;7.85;;;3.95;;
75634;SDS011;64227;48.724;9.104;2023-05-27T12:40:28;6.25;;;3.67;;
75634;SDS011;64227;48.724;9.104;2023-05-27T12:42:54;5.75;;;3.85;;
75634;SDS011;64227;48.724;9.104;2023-05-27T12:45:19;8.45;;;3.78;;
75634;SDS011;64227;48.724;9.104;2023-05-27T12:47:49;5.18;;;3.65;;
75634;SDS011;64227;48.724;9.104;2023-05-27T12:50:15;5.68;;;3.50;;
75634;SDS011;64227;48.724;9.104;2023-05-27T12:52:41;7.90;;;4.28;;
75634;SDS011;64227;48.724;9.104;2023-05-27T12:55:11;7.18;;;3.97;;
75634;SDS011;64227;48.724;9.104;2023-05-27T12:57:37;6.18;;;3.80;;
75634;SDS011;64227;48.724;9.104;2023-05-27T13:00:03;6.32;;;4.03;;
75634;SDS011;64227;48.724;9.104;2023-05-27T13:02:28;6.03;;;4.13;;
75634;SDS011;64227;48.724;9.104;2023-05-27T13:04:54;6.47;;;4.32;;
75634;SDS011;64227;48.724;9.104;2023-05-27T13:07:19;5.47;;;4.55;;
75634;SDS011;64227;48.724;9.104;2023-05-27T13:09:45;6.72;;;4.50;;
75634;SDS011;64227;48.724;9.104;2023-05-27T13:12:10;7.18;;;4.45;;
75634;SDS011;64227;48.724;9.104;2023-05-27T13:14:36;7.85;;;4.75;;
75634;SDS011;64227;48.724;9.104;2023-05-27T13:17:01;6.80;;;4.25;;
75634;SDS011;64227;48.724;9.104;2023-05-27T13:19:27;7.22;;;4.50;;
75634;SDS011;64227;48.724;9.104;2023-05-27T13:21:53;7.68;;;4.32;;
75634;SDS011;64227;48.724;9.104;2023-05-27T13:24:19;7.80;;;4.45;;
75634;SDS011;64227;48.724;9.104;2023-05-27T13:26:45;5.80;;;4.32;;
75634;SDS011;64227;48.724;9.104;2023-05-27T13:29:10;6.63;;;4.00;;
75634;SDS011;64227;48.724;9.104;2023-05-27T13:31:35;5.90;;;4.25;;
75634;SDS011;64227;48.724;9.104;2023-05-27T13:34:01;7.13;;;4.68;;
75634;SDS011;64227;48.724;9.104;2023-05-27T13:36:26;6.55;;;4.30;;
75634;SDS011;64227;48.724;9.104;2023-05-27T13:38:51;7.38;;;4.28;;
75634;SDS011;64227;48.724;9.104;2023-05-27T13:41:17;6.88;;;4.50;;
75634;SDS011;64227;48.724;9.104;2023-05-27T13:43:42;7.25;;;4.50;;
75634;SDS011;64227;48.724;9.104;2023-05-27T13:46:07;5.40;;;4.05;;
75634;SDS011;64227;48.724;9.104;2023-05-27T13:48:33;7.25;;;4.05;;
75634;SDS011;64227;48.724;9.104;2023-05-27T13:50:58;5.95;;;3.97;;
75634;SDS011;64227;48.724;9.104;2023-05-27T13:53:23;6.90;;;3.95;;
75634;SDS011;64227;48.724;9.104;2023-05-27T13:55:49;5.07;;;3.83;;
75634;SDS011;64227;48.724;9.104;2023-05-27T13:58:14;6.65;;;4.25;;
75634;SDS011;64227;48.724;9.104;2023-05-27T14:00:40;7.57;;;4.72;;
75634;SDS011;64227;48.724;9.104;2023-05-27T14:03:06;10.45;;;4.28;;
75634;SDS011;64227;48.724;9.104;2023-05-27T14:05:31;5.45;;;4.05;;
75634;SDS011;64227;48.724;9.104;2023-05-27T14:07:57;6.38;;;4.40;;
75634;SDS011;64227;48.724;9.104;2023-05-27T14:10:22;8.65;;;3.92;;
75634;SDS011;64227;48.724;9.104;2023-05-27T14:12:47;8.13;;;4.15;;
75634;SDS011;64227;48.724;9.104;2023-05-27T14:15:13;9.77;;;3.60;;
75634;SDS011;64227;48.724;9.104;2023-05-27T14:17:38;6.60;;;4.00;;
75634;SDS011;64227;48.724;9.104;2023-05-27T14:20:04;6.97;;;4.05;;
75634;SDS011;64227;48.724;9.104;2023-05-27T14:22:36;6.47;;;3.90;;
75634;SDS011;64227;48.724;9.104;2023-05-27T14:25:01;4.55;;;3.20;;
75634;SDS011;64227;48.724;9.104;2023-05-27T14:27:26;4.28;;;3.33;;
75634;SDS011;64227;48.724;9.104;2023-05-27T14:29:52;5.88;;;3.83;;
75634;SDS011;64227;48.724;9.104;2023-05-27T14:32:17;8.98;;;4.32;;
75634;SDS011;64227;48.724;9.104;2023-05-27T14:34:42;4.95;;;3.40;;
75634;SDS011;64227;48.724;9.104;2023-05-27T14:37:08;4.90;;;3.78;;
75634;SDS011;64227;48.724;9.104;2023-05-27T14:39:33;6.38;;;3.55;;
75634;SDS011;64227;48.724;9.104;2023-05-27T14:41:58;5.03;;;3.38;;
75634;SDS011;64227;48.724;9.104;2023-05-27T14:44:24;5.95;;;3.35;;
75634;SDS011;64227;48.724;9.104;2023-05-27T14:46:49;5.35;;;3.00;;
75634;SDS011;64227;48.724;9.104;2023-05-27T14:49:14;5.28;;;3.25;;